< < Back
Terminal Aerodrome Forecast


Current Version              Previous Versions:   1  2  3  4  5  6  7  8  9  

Terminal Aerodrome Forecast

798
FTUS44 KBMX 272324
TAFBHM
TAF
KBHM 272324Z 2800/2824 03004KT P6SM OVC250
     FM280900 07006KT P6SM OVC250
     FM281700 05011KT P6SM -RA OVC100=



Latest METAR

807
SAUS70 KWBC 280700 RRB
MTRBHM
METAR KBHM 280653Z 00000KT 10SM BKN250 12/08 A2992 RMK AO2 SLP127
T01170078


USA.gov is the U.S. government's official web portal to all federal, state and local government web resources and services.